Time;durP1;ratioP1;P1;durP2;ratioP2;P2;SDS_P1;SDS_P2;PMS_P1;PMS_P2;Temp;Humidity;BMP_temperature;BMP_pressure;BME280_temperature;BME280_humidity;BME280_pressure;Samples;Min_cycle;Max_cycle;Signal;HPM_P1;HPM_P2
2022/07/14 00:01:39;;;;;;;0.30;0.30;;;13.30;99.90;;;;;;4956684;28;20051;-76
2022/07/14 00:04:05;;;;;;;0.40;0.40;;;13.30;99.90;;;;;;4954543;28;20085;-76
2022/07/14 00:06:32;;;;;;;0.47;0.47;;;13.20;99.90;;;;;;4959438;28;20081;-76
2022/07/14 00:08:58;;;;;;;;;;;13.20;99.90;;;;;;4958402;28;20051;-76
2022/07/14 00:11:24;;;;;;;0.30;0.30;;;13.20;99.90;;;;;;4965146;28;19923;-76
2022/07/14 00:13:50;;;;;;;0.30;0.30;;;13.10;99.90;;;;;;4969121;28;20125;-76
2022/07/14 00:16:15;;;;;;;0.35;0.35;;;13.10;99.90;;;;;;4955294;28;20046;-76
2022/07/14 00:18:44;;;;;;;0.30;0.30;;;13.10;99.90;;;;;;4959606;28;20043;-77
2022/07/14 00:21:14;;;;;;;0.30;0.30;;;13.00;99.90;;;;;;4955200;28;20047;-77
2022/07/14 00:23:45;;;;;;;0.30;0.30;;;13.00;99.90;;;;;;4965413;28;20373;-76
2022/07/14 00:26:11;;;;;;;0.47;0.47;;;12.90;99.90;;;;;;4951972;28;20100;-77
2022/07/14 00:28:37;;;;;;;0.30;0.30;;;13.00;99.90;;;;;;4966540;28;20050;-76
2022/07/14 00:31:10;;;;;;;0.20;0.20;;;13.00;99.90;;;;;;4963261;28;20484;-76
2022/07/14 00:33:38;;;;;;;0.35;0.35;;;12.90;99.90;;;;;;4943950;28;20122;-77
2022/07/14 00:36:04;;;;;;;0.30;0.30;;;12.80;99.90;;;;;;4958695;28;20168;-76
2022/07/14 00:38:30;;;;;;;0.30;0.30;;;12.80;99.90;;;;;;4961469;28;20450;-76
2022/07/14 00:40:57;;;;;;;0.30;0.30;;;12.70;99.90;;;;;;4953066;28;20043;-76
2022/07/14 00:43:22;;;;;;;;;;;12.70;99.90;;;;;;4961249;28;20491;-76
2022/07/14 00:45:48;;;;;;;0.40;0.40;;;12.70;99.90;;;;;;4957469;28;19925;-76
2022/07/14 00:48:14;;;;;;;0.30;0.30;;;12.60;99.90;;;;;;4948906;28;20058;-76
2022/07/14 00:50:44;;;;;;;0.30;0.30;;;12.60;99.90;;;;;;4955079;28;20050;-77
2022/07/14 00:53:11;;;;;;;0.20;0.20;;;12.50;99.90;;;;;;4964763;28;20051;-76
2022/07/14 00:55:40;;;;;;;0.30;0.30;;;12.60;99.90;;;;;;4954757;28;20519;-76
2022/07/14 00:58:06;;;;;;;0.30;0.30;;;12.50;99.90;;;;;;4955707;28;20131;-76
2022/07/14 01:00:32;;;;;;;0.40;0.40;;;12.60;99.90;;;;;;4961623;28;20046;-76
2022/07/14 01:02:57;;;;;;;;;;;12.60;99.90;;;;;;4963578;28;20042;-77
2022/07/14 01:05:23;;;;;;;0.40;0.40;;;12.50;99.90;;;;;;4959896;28;20282;-76
2022/07/14 01:07:49;;;;;;;0.28;0.28;;;12.50;99.90;;;;;;4958311;28;20043;-76
2022/07/14 01:10:15;;;;;;;0.30;0.30;;;12.50;99.90;;;;;;4952334;28;20047;-77
2022/07/14 01:12:46;;;;;;;0.30;0.30;;;12.60;99.90;;;;;;4962303;28;20057;-77
2022/07/14 01:15:14;;;;;;;0.30;0.30;;;12.60;99.90;;;;;;4971951;28;20417;-76
2022/07/14 01:17:39;;;;;;;0.30;0.30;;;12.70;99.90;;;;;;4953942;28;20554;-76
2022/07/14 01:20:06;;;;;;;0.52;0.52;;;12.90;99.90;;;;;;4952141;28;20039;-76
2022/07/14 01:22:31;;;;;;;0.40;0.40;;;12.90;99.90;;;;;;4953934;28;20408;-75
2022/07/14 01:24:57;;;;;;;0.30;0.30;;;13.00;99.90;;;;;;4951523;28;20046;-76
2022/07/14 01:27:23;;;;;;;0.40;0.40;;;13.00;99.90;;;;;;4952538;28;20063;-76
2022/07/14 01:29:49;;;;;;;0.40;0.40;;;13.00;99.90;;;;;;4958689;28;20472;-76
2022/07/14 01:32:14;;;;;;;0.40;0.40;;;13.00;99.90;;;;;;4950603;28;20389;-76
2022/07/14 01:34:40;;;;;;;0.30;0.30;;;13.00;99.90;;;;;;4958452;28;20404;-76
2022/07/14 01:37:06;;;;;;;0.20;0.20;;;13.00;99.90;;;;;;4952038;28;20046;-76
2022/07/14 01:39:32;;;;;;;0.30;0.30;;;12.90;99.90;;;;;;4952174;28;20070;-76
2022/07/14 01:41:57;;;;;;;0.30;0.30;;;12.90;99.90;;;;;;4952286;28;20467;-76
2022/07/14 01:44:23;;;;;;;0.30;0.30;;;12.80;99.90;;;;;;4951732;28;20058;-76
2022/07/14 01:46:49;;;;;;;0.30;0.30;;;12.70;99.90;;;;;;4934464;28;20531;-76
2022/07/14 01:49:15;;;;;;;0.40;0.40;;;12.70;99.90;;;;;;4954721;28;20066;-76
2022/07/14 01:51:41;;;;;;;0.40;0.40;;;12.50;99.90;;;;;;4965677;28;20549;-76
2022/07/14 01:54:07;;;;;;;0.40;0.40;;;12.50;99.90;;;;;;4955925;28;20048;-76
2022/07/14 01:56:37;;;;;;;0.30;0.30;;;12.40;99.90;;;;;;4949481;28;20047;-77
2022/07/14 01:59:02;;;;;;;0.20;0.20;;;12.40;99.90;;;;;;4960476;28;20047;-76
2022/07/14 02:01:40;;;;;;;0.40;0.40;;;12.30;99.90;;;;;;4936172;28;20526;-76
2022/07/14 02:04:14;;;;;;;0.40;0.40;;;12.20;99.90;;;;;;4966926;28;20124;-76
2022/07/14 02:06:50;;;;;;;0.50;0.50;;;12.10;99.90;;;;;;4956863;28;20408;-76
2022/07/14 02:09:17;;;;;;;0.40;0.40;;;12.10;99.90;;;;;;4960850;28;20059;-76
2022/07/14 02:14:29;;;;;;;0.40;0.40;;;12.00;99.90;;;;;;4962192;28;20043;-76
2022/07/14 02:16:54;;;;;;;0.30;0.30;;;11.90;99.90;;;;;;4952892;28;20066;-76
2022/07/14 02:19:21;;;;;;;0.40;0.40;;;11.80;99.90;;;;;;4954559;28;20043;-77
2022/07/14 02:21:47;;;;;;;0.38;0.38;;;11.70;99.90;;;;;;4957136;28;20130;-76
2022/07/14 02:24:13;;;;;;;0.52;0.52;;;11.70;99.90;;;;;;4959171;28;20138;-76
2022/07/14 02:26:41;;;;;;;0.40;0.40;;;11.70;99.90;;;;;;4952387;28;20062;-76
2022/07/14 02:29:06;;;;;;;0.40;0.40;;;11.60;99.90;;;;;;4952386;28;20074;-76
2022/07/14 02:31:33;;;;;;;0.40;0.40;;;11.50;99.90;;;;;;4952660;28;20094;-77
2022/07/14 02:34:00;;;;;;;0.40;0.40;;;11.60;99.90;;;;;;4952582;28;20408;-76
2022/07/14 02:36:26;;;;;;;0.30;0.30;;;11.50;99.90;;;;;;4957387;28;20058;-76
2022/07/14 02:38:51;;;;;;;0.50;0.50;;;11.60;99.90;;;;;;4959180;28;20047;-76
2022/07/14 02:41:17;;;;;;;0.30;0.30;;;11.50;99.90;;;;;;4935144;29;20043;-76
2022/07/14 02:43:43;;;;;;;0.30;0.30;;;11.50;99.90;;;;;;4967843;28;20046;-76
2022/07/14 02:46:09;;;;;;;0.40;0.40;;;11.50;99.90;;;;;;4962408;28;20051;-75
2022/07/14 02:48:35;;;;;;;0.50;0.50;;;11.50;99.90;;;;;;4952079;28;20055;-76
2022/07/14 02:51:02;;;;;;;0.32;0.32;;;11.50;99.90;;;;;;4952112;28;20055;-76
2022/07/14 02:53:28;;;;;;;0.50;0.50;;;11.40;99.90;;;;;;4956865;28;20042;-76
2022/07/14 02:55:54;;;;;;;0.50;0.50;;;11.40;99.90;;;;;;4956493;28;20043;-76
2022/07/14 02:58:20;;;;;;;0.40;0.40;;;11.40;99.90;;;;;;4959325;28;20054;-76
2022/07/14 03:00:46;;;;;;;0.40;0.40;;;11.40;99.90;;;;;;4955267;28;20101;-76
2022/07/14 03:03:12;;;;;;;0.50;0.50;;;11.40;99.90;;;;;;4951758;28;20079;-76
2022/07/14 03:05:39;;;;;;;0.40;0.40;;;11.40;99.90;;;;;;4959591;28;20071;-77
2022/07/14 03:08:05;;;;;;;0.40;0.40;;;11.40;99.90;;;;;;4968717;28;20043;-77
2022/07/14 03:10:31;;;;;;;0.45;0.45;;;11.40;99.90;;;;;;4977446;28;20500;-76
2022/07/14 03:12:57;;;;;;;0.40;0.40;;;11.30;99.90;;;;;;4973994;28;20047;-76
2022/07/14 03:15:23;;;;;;;0.30;0.30;;;11.40;99.90;;;;;;4945438;28;20039;-76
2022/07/14 03:17:49;;;;;;;0.20;0.20;;;11.40;99.90;;;;;;4955152;28;20075;-76
2022/07/14 03:20:14;;;;;;;0.30;0.30;;;11.50;99.90;;;;;;4953547;28;20065;-76
2022/07/14 03:22:40;;;;;;;0.50;0.50;;;11.60;99.90;;;;;;4954480;28;20123;-75
2022/07/14 03:25:06;;;;;;;0.38;0.38;;;11.60;99.90;;;;;;4950197;28;20473;-76
2022/07/14 03:27:35;;;;;;;;;;;11.60;99.90;;;;;;4954859;28;20103;-77
2022/07/14 03:30:02;;;;;;;0.35;0.35;;;11.60;99.90;;;;;;4937288;28;20360;-76
2022/07/14 03:32:27;;;;;;;0.40;0.40;;;11.60;99.90;;;;;;4958704;28;20050;-76
2022/07/14 03:34:53;;;;;;;0.30;0.30;;;11.50;99.90;;;;;;4938396;28;20403;-76
2022/07/14 03:37:19;;;;;;;0.40;0.40;;;11.50;99.90;;;;;;4965351;28;20046;-76
2022/07/14 03:39:45;;;;;;;0.40;0.40;;;11.50;99.90;;;;;;4964616;28;20051;-76
2022/07/14 03:42:11;;;;;;;0.40;0.40;;;11.50;99.90;;;;;;4940561;28;20055;-76
2022/07/14 03:44:37;;;;;;;0.30;0.30;;;11.40;99.90;;;;;;4958137;28;20399;-76
2022/07/14 03:47:03;;;;;;;0.50;0.50;;;11.40;99.90;;;;;;4952575;28;20043;-76
2022/07/14 03:49:29;;;;;;;0.40;0.40;;;11.30;99.90;;;;;;4950645;28;20052;-76
2022/07/14 03:51:55;;;;;;;;;;;11.30;99.90;;;;;;4954395;28;20064;-76
2022/07/14 03:54:20;;;;;;;0.40;0.40;;;11.30;99.90;;;;;;4959473;28;19922;-76
2022/07/14 03:56:46;;;;;;;0.40;0.40;;;11.30;99.90;;;;;;4957466;28;20405;-76
2022/07/14 03:59:12;;;;;;;0.40;0.40;;;11.30;99.90;;;;;;4960284;28;20086;-76
2022/07/14 04:01:38;;;;;;;0.28;0.28;;;11.30;99.90;;;;;;4952581;28;20082;-76
2022/07/14 04:04:04;;;;;;;0.40;0.40;;;11.30;99.90;;;;;;4951491;28;20060;-76
2022/07/14 04:06:30;;;;;;;0.40;0.40;;;11.40;99.90;;;;;;4958505;28;20104;-76
2022/07/14 04:08:57;;;;;;;0.40;0.40;;;11.30;99.90;;;;;;4963588;28;20059;-76
2022/07/14 04:11:23;;;;;;;0.40;0.40;;;11.30;99.90;;;;;;4951420;28;20047;-76
2022/07/14 04:13:48;;;;;;;0.50;0.50;;;11.30;99.90;;;;;;4969792;28;20388;-76
2022/07/14 04:16:14;;;;;;;0.50;0.50;;;11.30;99.90;;;;;;4964786;28;20519;-76
2022/07/14 04:18:40;;;;;;;;;;;11.40;99.90;;;;;;4955237;28;20047;-76
2022/07/14 04:21:08;;;;;;;0.50;0.50;;;11.40;99.90;;;;;;4951929;28;19926;-76
2022/07/14 04:23:35;;;;;;;0.40;0.40;;;11.40;99.90;;;;;;4954299;28;20061;-76
2022/07/14 04:26:02;;;;;;;;;;;11.50;99.90;;;;;;4955242;28;20429;-76
2022/07/14 04:28:28;;;;;;;0.40;0.40;;;11.50;99.90;;;;;;4959993;28;19928;-76
2022/07/14 04:30:53;;;;;;;;;;;11.60;99.90;;;;;;4937938;28;20043;-76
2022/07/14 04:33:20;;;;;;;0.40;0.40;;;11.60;99.90;;;;;;4958250;28;19926;-76
2022/07/14 04:35:46;;;;;;;0.30;0.30;;;11.70;99.90;;;;;;4962642;28;20121;-77
2022/07/14 04:38:12;;;;;;;0.40;0.40;;;11.80;99.90;;;;;;4954738;28;20134;-76
2022/07/14 04:40:38;;;;;;;0.43;0.43;;;11.90;99.90;;;;;;4944108;28;20039;-76
2022/07/14 04:43:04;;;;;;;;;;;12.10;99.90;;;;;;4946261;28;20042;-76
2022/07/14 04:45:30;;;;;;;0.40;0.40;;;12.20;99.90;;;;;;4970107;28;20009;-76
2022/07/14 04:47:55;;;;;;;0.30;0.30;;;12.30;99.90;;;;;;4963402;28;20047;-76
2022/07/14 04:53:05;;;;;;;0.30;0.30;;;12.50;99.90;;;;;;4955110;28;20073;-75
2022/07/14 04:55:31;;;;;;;0.38;0.38;;;12.70;99.90;;;;;;4963996;28;20074;-76
2022/07/14 04:57:57;;;;;;;0.40;0.40;;;12.90;99.90;;;;;;4958902;28;20043;-76
2022/07/14 05:00:22;;;;;;;0.38;0.38;;;13.10;99.90;;;;;;4936969;28;20040;-76
2022/07/14 05:02:51;;;;;;;0.40;0.40;;;13.30;99.90;;;;;;4956819;28;20047;-76
2022/07/14 05:05:17;;;;;;;0.40;0.40;;;13.60;99.90;;;;;;4961551;28;20047;-76
2022/07/14 05:07:43;;;;;;;0.40;0.40;;;;;;;;;;4943089;28;20058;-77
2022/07/14 05:10:08;;;;;;;0.30;0.30;;;13.90;99.90;;;;;;4949385;28;20052;-75
2022/07/14 05:12:34;;;;;;;0.45;0.45;;;14.10;99.90;;;;;;4965255;28;20404;-75
2022/07/14 05:15:01;;;;;;;0.30;0.30;;;14.40;99.90;;;;;;4969522;28;20035;-75
2022/07/14 05:17:27;;;;;;;0.28;0.28;;;14.50;99.90;;;;;;4938725;28;20054;-75
2022/07/14 05:19:53;;;;;;;0.30;0.30;;;14.60;99.90;;;;;;4956178;28;20070;-75
2022/07/14 05:22:19;;;;;;;0.20;0.20;;;14.70;99.90;;;;;;4950504;28;20126;-75
2022/07/14 05:24:45;;;;;;;0.10;0.10;;;14.70;99.90;;;;;;4953967;28;20035;-76
2022/07/14 05:27:11;;;;;;;0.20;0.20;;;14.70;99.90;;;;;;4938313;28;20043;-75
2022/07/14 05:29:37;;;;;;;0.40;0.40;;;14.70;99.90;;;;;;4960872;28;20368;-75
2022/07/14 05:32:04;;;;;;;4.30;1.60;;;14.80;99.90;;;;;;4935382;28;20051;-75
2022/07/14 05:34:29;;;;;;;0.40;0.40;;;14.80;99.90;;;;;;4951570;28;20039;-75
2022/07/14 05:36:56;;;;;;;0.40;0.40;;;14.90;99.90;;;;;;4955010;28;20055;-75
2022/07/14 05:39:22;;;;;;;0.52;0.52;;;15.00;99.90;;;;;;4959961;28;20050;-75
2022/07/14 05:41:47;;;;;;;0.50;0.50;;;15.00;99.90;;;;;;4957734;28;20405;-76
2022/07/14 05:44:13;;;;;;;;;;;14.90;99.90;;;;;;4967322;28;20046;-75
2022/07/14 05:46:39;;;;;;;0.43;0.43;;;14.90;99.90;;;;;;4941313;28;19925;-75
2022/07/14 05:49:04;;;;;;;0.28;0.28;;;14.80;99.90;;;;;;4964166;28;20043;-75
2022/07/14 05:51:30;;;;;;;0.32;0.32;;;14.80;99.90;;;;;;4965992;28;20431;-76
2022/07/14 05:53:55;;;;;;;;;;;14.80;99.90;;;;;;4949080;28;20043;-75
2022/07/14 05:56:21;;;;;;;0.30;0.30;;;14.80;99.90;;;;;;4971548;28;19925;-75
2022/07/14 05:58:47;;;;;;;0.88;0.82;;;14.90;99.90;;;;;;4965342;28;20054;-75
2022/07/14 06:01:14;;;;;;;;;;;14.90;99.90;;;;;;4962841;28;20046;-76
2022/07/14 06:03:40;;;;;;;0.35;0.35;;;15.00;99.90;;;;;;4957866;28;19922;-75
2022/07/14 06:06:07;;;;;;;;;;;15.00;99.90;;;;;;4966425;28;20043;-76
2022/07/14 06:08:33;;;;;;;0.30;0.30;;;15.20;99.90;;;;;;4958977;28;20532;-76
2022/07/14 06:11:00;;;;;;;0.45;0.45;;;15.30;99.90;;;;;;4960683;28;20039;-77
2022/07/14 06:13:27;;;;;;;0.30;0.30;;;15.40;99.90;;;;;;4968618;28;20034;-76
2022/07/14 06:15:54;;;;;;;4.13;0.85;;;15.60;99.90;;;;;;4958265;28;20047;-77
2022/07/14 06:18:20;;;;;;;0.40;0.40;;;15.80;99.90;;;;;;4956621;28;20035;-76
2022/07/14 06:20:45;;;;;;;0.30;0.30;;;16.00;99.90;;;;;;4954860;28;20573;-76
2022/07/14 06:23:11;;;;;;;0.30;0.30;;;16.20;99.90;;;;;;4949411;28;20051;-76
2022/07/14 06:25:37;;;;;;;;;;;16.20;99.90;;;;;;4960720;28;20069;-76
2022/07/14 06:28:03;;;;;;;0.30;0.30;;;16.30;99.90;;;;;;4965489;28;19922;-76
2022/07/14 06:30:30;;;;;;;;;;;16.40;99.90;;;;;;4950296;28;20055;-76
2022/07/14 06:32:56;;;;;;;0.30;0.30;;;16.40;99.90;;;;;;4965032;28;19918;-76
2022/07/14 06:35:22;;;;;;;0.30;0.30;;;16.50;99.90;;;;;;4959314;28;20142;-76
2022/07/14 06:37:50;;;;;;;0.32;0.32;;;16.60;99.90;;;;;;4959520;28;20122;-76
2022/07/14 06:40:16;;;;;;;0.35;0.35;;;16.70;99.90;;;;;;4958987;28;20400;-76
2022/07/14 06:42:42;;;;;;;0.40;0.40;;;16.70;99.90;;;;;;4963532;28;20047;-75
2022/07/14 06:45:08;;;;;;;;;;;16.70;99.90;;;;;;4957325;28;20440;-76
2022/07/14 06:47:34;;;;;;;0.45;0.40;;;16.70;99.90;;;;;;4958525;28;19918;-76
2022/07/14 06:50:00;;;;;;;0.30;0.30;;;16.70;99.90;;;;;;4965944;28;20053;-77
2022/07/14 06:52:25;;;;;;;;;;;16.80;99.90;;;;;;4963585;28;20480;-78
2022/07/14 06:54:52;;;;;;;0.30;0.30;;;16.90;99.90;;;;;;4959028;28;19926;-76
2022/07/14 06:57:18;;;;;;;0.20;0.20;;;17.00;99.90;;;;;;4954295;28;20039;-76
2022/07/14 06:59:44;;;;;;;0.30;0.30;;;17.10;99.90;;;;;;4956685;28;20081;-76
2022/07/14 07:02:10;;;;;;;0.50;0.50;;;17.20;99.90;;;;;;4960904;28;20082;-76
2022/07/14 07:04:35;;;;;;;;;;;17.20;99.90;;;;;;4958273;28;20043;-76
2022/07/14 07:07:01;;;;;;;0.30;0.30;;;17.40;99.90;;;;;;4957236;28;19971;-75
2022/07/14 07:09:27;;;;;;;;;;;17.40;99.90;;;;;;4957361;28;20062;-76
2022/07/14 07:11:53;;;;;;;0.30;0.30;;;17.50;99.90;;;;;;4961525;28;20558;-75
2022/07/14 07:14:19;;;;;;;0.20;0.20;;;17.70;99.90;;;;;;4954918;28;20043;-78
2022/07/14 07:16:45;;;;;;;;;;;17.90;99.90;;;;;;4953602;28;20069;-76
2022/07/14 07:19:11;;;;;;;0.30;0.30;;;18.00;99.90;;;;;;4945225;28;20013;-76
2022/07/14 07:21:37;;;;;;;;;;;18.20;99.90;;;;;;4953897;28;20468;-76
2022/07/14 07:24:02;;;;;;;0.30;0.30;;;18.40;99.90;;;;;;4941258;28;19929;-77
2022/07/14 07:26:32;;;;;;;;;;;18.50;99.90;;;;;;4955843;28;20049;-76
2022/07/14 07:28:58;;;;;;;0.68;0.68;;;18.50;99.90;;;;;;4957902;28;19923;-75
2022/07/14 07:31:23;;;;;;;;;;;18.60;99.90;;;;;;4962188;28;20130;-75
2022/07/14 07:33:49;;;;;;;0.20;0.20;;;18.50;99.90;;;;;;4960366;28;19968;-76
2022/07/14 07:36:15;;;;;;;;;;;18.50;99.90;;;;;;4960962;28;20126;-76
2022/07/14 07:38:41;;;;;;;0.20;0.20;;;18.60;99.90;;;;;;4958948;28;19924;-76
2022/07/14 07:41:07;;;;;;;0.30;0.30;;;18.80;99.90;;;;;;4958287;28;20051;-76
2022/07/14 07:43:32;;;;;;;;;;;19.00;99.90;;;;;;4954251;28;20058;-76
2022/07/14 07:45:59;;;;;;;0.22;0.22;;;19.00;99.90;;;;;;4959572;28;19918;-76
2022/07/14 07:48:25;;;;;;;0.30;0.30;;;18.80;99.90;;;;;;4954165;28;20058;-76
2022/07/14 07:50:51;;;;;;;0.30;0.30;;;18.70;99.90;;;;;;4955297;28;20047;-76
2022/07/14 07:53:17;;;;;;;0.30;0.30;;;18.80;99.90;;;;;;4959912;28;20042;-76
2022/07/14 07:55:42;;;;;;;;;;;18.80;99.90;;;;;;4955007;28;20503;-76
2022/07/14 07:58:08;;;;;;;0.20;0.20;;;18.90;99.90;;;;;;4956450;28;20288;-75
2022/07/14 08:00:34;;;;;;;;;;;19.20;99.90;;;;;;4960426;28;20054;-76
2022/07/14 08:03:01;;;;;;;0.43;0.30;;;19.50;99.90;;;;;;4955184;28;20489;-76
2022/07/14 08:05:29;;;;;;;0.30;0.30;;;19.60;99.90;;;;;;4967288;28;20403;-76
2022/07/14 08:07:55;;;;;;;0.20;0.20;;;19.70;99.90;;;;;;4957081;28;20126;-75
2022/07/14 08:10:22;;;;;;;0.32;0.32;;;19.70;99.90;;;;;;4938202;28;20377;-76
2022/07/14 08:12:48;;;;;;;0.30;0.30;;;19.80;99.90;;;;;;4961134;28;20492;-77
2022/07/14 08:15:14;;;;;;;0.30;0.30;;;19.90;99.90;;;;;;4938696;28;20126;-75
2022/07/14 08:17:40;;;;;;;0.30;0.30;;;20.00;99.90;;;;;;4959773;28;20035;-76
2022/07/14 08:20:10;;;;;;;0.20;0.20;;;19.90;99.90;;;;;;4960845;28;20131;-75
2022/07/14 08:22:36;;;;;;;0.28;0.28;;;19.80;99.90;;;;;;4935491;28;20039;-76
2022/07/14 08:25:04;;;;;;;0.30;0.30;;;19.70;99.90;;;;;;4963136;28;20074;-76
2022/07/14 08:27:30;;;;;;;0.17;0.17;;;19.80;99.90;;;;;;4960181;28;20047;-75
2022/07/14 08:29:56;;;;;;;0.40;0.40;;;19.90;99.90;;;;;;4977422;28;20092;-75
2022/07/14 08:32:41;;;;;;;0.20;0.20;;;20.10;99.90;;;;;;4971364;28;20051;-77
2022/07/14 08:35:10;;;;;;;0.20;0.20;;;20.40;99.90;;;;;;4952205;28;20051;-76
2022/07/14 08:37:36;;;;;;;0.20;0.20;;;20.50;99.90;;;;;;4966538;28;20453;-77
2022/07/14 08:40:13;;;;;;;0.10;0.10;;;20.60;99.90;;;;;;4978501;28;20555;-75
2022/07/14 08:42:44;;;;;;;0.30;0.30;;;20.50;99.90;;;;;;4967558;28;20047;-76
2022/07/14 08:45:12;;;;;;;0.30;0.30;;;20.40;99.90;;;;;;4966472;28;20126;-75
2022/07/14 08:47:38;;;;;;;0.20;0.20;;;20.50;99.90;;;;;;4960669;28;20101;-75
2022/07/14 08:50:06;;;;;;;0.25;0.25;;;20.50;99.90;;;;;;4966547;28;20079;-76
2022/07/14 08:52:32;;;;;;;0.40;0.40;;;20.50;99.90;;;;;;4966554;28;20052;-75
2022/07/14 08:54:59;;;;;;;0.22;0.22;;;20.40;99.90;;;;;;4959928;28;20389;-76
2022/07/14 08:57:26;;;;;;;0.20;0.20;;;20.30;99.90;;;;;;4966883;28;20039;-76
2022/07/14 08:59:51;;;;;;;0.20;0.20;;;20.10;99.90;;;;;;4939357;28;20047;-75
2022/07/14 09:02:17;;;;;;;0.20;0.20;;;20.10;99.90;;;;;;4962141;28;20200;-76
2022/07/14 09:04:43;;;;;;;;;;;20.20;99.90;;;;;;4967605;28;20054;-76
2022/07/14 09:07:09;;;;;;;0.20;0.20;;;20.40;99.90;;;;;;4949354;28;19967;-76
2022/07/14 09:09:35;;;;;;;0.20;0.20;;;20.60;99.90;;;;;;4963930;28;20063;-76
2022/07/14 09:12:06;;;;;;;0.30;0.30;;;20.60;99.90;;;;;;4974730;28;20125;-76
2022/07/14 09:17:29;;;;;;;0.30;0.30;;;20.60;99.90;;;;;;4961229;28;20058;-76
2022/07/14 09:20:07;;;;;;;0.20;0.20;;;20.50;99.90;;;;;;4963004;28;20365;-78
2022/07/14 09:22:36;;;;;;;0.20;0.20;;;20.20;99.90;;;;;;4958549;28;20058;-77
2022/07/14 09:25:05;;;;;;;0.13;0.13;;;20.10;99.90;;;;;;4965983;28;20447;-76
2022/07/14 09:27:31;;;;;;;0.30;0.30;;;20.00;99.90;;;;;;4950455;28;20499;-78
2022/07/14 09:29:56;;;;;;;0.30;0.30;;;20.00;99.90;;;;;;4960651;28;20051;-77
2022/07/14 09:32:53;;;;;;;0.22;0.22;;;20.10;99.90;;;;;;4965238;28;20046;-76
2022/07/14 09:35:23;;;;;;;0.22;0.22;;;20.10;99.90;;;;;;4943698;28;20047;-76
2022/07/14 09:37:51;;;;;;;0.30;0.30;;;20.20;99.90;;;;;;4966944;28;20081;-76
2022/07/14 09:40:28;;;;;;;0.38;0.38;;;20.30;99.90;;;;;;4945930;28;20127;-76
2022/07/14 09:43:02;;;;;;;0.28;0.28;;;20.50;99.90;;;;;;4951333;28;20047;-75
2022/07/14 09:45:49;;;;;;;0.20;0.20;;;20.70;99.90;;;;;;4968943;28;20043;-78
2022/07/14 09:48:24;;;;;;;0.30;0.30;;;21.10;99.90;;;;;;4944261;28;20392;-80
2022/07/14 09:51:00;;;;;;;0.20;0.20;;;21.20;99.90;;;;;;4956310;28;20418;-81
2022/07/14 09:53:34;;;;;;;0.30;0.30;;;21.40;99.90;;;;;;4954439;28;21072;-81
2022/07/14 09:56:07;;;;;;;0.20;0.20;;;21.40;99.90;;;;;;4958101;28;20054;-78
2022/07/14 09:58:41;;;;;;;2.35;1.58;;;21.40;99.90;;;;;;4953244;28;20464;-83
2022/07/14 10:01:10;;;;;;;0.30;0.30;;;21.30;99.90;;;;;;4954790;28;20089;-80
2022/07/14 10:03:40;;;;;;;0.35;0.35;;;21.30;99.90;;;;;;4955303;28;20055;-81
2022/07/14 10:06:05;;;;;;;0.35;0.35;;;21.20;99.90;;;;;;4928501;28;20470;-82
2022/07/14 10:08:34;;;;;;;0.30;0.30;;;21.30;99.90;;;;;;4952275;28;20047;-83
2022/07/14 10:11:02;;;;;;;0.30;0.30;;;21.30;99.90;;;;;;4949937;28;20051;-80
2022/07/14 10:13:29;;;;;;;0.22;0.22;;;21.40;99.90;;;;;;4966332;28;20042;-81
2022/07/14 10:15:56;;;;;;;0.20;0.20;;;21.40;99.90;;;;;;4958020;28;20100;-81
2022/07/14 10:18:23;;;;;;;0.57;0.47;;;21.50;99.90;;;;;;4944309;28;20206;-81
2022/07/14 10:20:58;;;;;;;0.30;0.30;;;21.50;99.90;;;;;;4952383;28;20063;-84
2022/07/14 10:23:24;;;;;;;0.20;0.20;;;21.40;99.90;;;;;;4953219;28;20042;-82
2022/07/14 10:25:53;;;;;;;0.28;0.28;;;21.40;99.90;;;;;;4953519;28;20113;-84
2022/07/14 10:28:19;;;;;;;0.20;0.20;;;21.40;99.90;;;;;;4962225;28;20121;-80
2022/07/14 10:31:22;;;;;;;0.20;0.20;;;21.30;99.90;;;;;;4956266;28;20489;-80
2022/07/14 10:34:00;;;;;;;0.43;0.43;;;21.40;99.90;;;;;;4964012;28;20515;-80
2022/07/14 10:36:43;;;;;;;0.20;0.20;;;21.70;99.90;;;;;;4968741;28;20049;-80
2022/07/14 10:39:36;;;;;;;0.20;0.20;;;22.10;99.90;;;;;;4962412;28;20039;-85
2022/07/14 10:42:14;;;;;;;0.20;0.20;;;22.00;99.90;;;;;;4956885;28;20410;-76
2022/07/14 10:44:45;;;;;;;0.20;0.20;;;21.80;99.90;;;;;;4955392;28;20079;-73
2022/07/14 10:47:15;;;;;;;0.20;0.20;;;21.40;99.90;;;;;;4952682;28;20527;-78
2022/07/14 10:50:02;;;;;;;0.30;0.30;;;21.10;99.90;;;;;;4952478;28;20043;-78
2022/07/14 10:52:30;;;;;;;0.30;0.30;;;20.80;99.90;;;;;;4952666;28;20126;-78
2022/07/14 10:55:16;;;;;;;0.20;0.20;;;20.80;99.90;;;;;;4965496;28;20066;-80
2022/07/14 10:58:01;;;;;;;0.37;0.33;;;20.80;99.90;;;;;;4959117;28;20157;-76
2022/07/14 11:00:42;;;;;;;0.20;0.20;;;20.80;99.90;;;;;;4986705;28;20542;-74
2022/07/14 11:03:32;;;;;;;0.30;0.30;;;20.60;99.90;;;;;;4964447;28;20046;-74
2022/07/14 11:06:01;;;;;;;0.20;0.20;;;20.60;99.90;;;;;;4937723;28;21875;-76
2022/07/14 11:08:28;;;;;;;0.50;0.50;;;20.70;99.90;;;;;;4957030;28;20051;-74
2022/07/14 11:10:55;;;;;;;0.20;0.20;;;20.60;99.90;;;;;;4954059;28;20043;-78
2022/07/14 11:13:22;;;;;;;0.30;0.30;;;20.60;99.90;;;;;;4952977;28;20050;-81
2022/07/14 11:15:51;;;;;;;0.20;0.20;;;20.70;99.90;;;;;;4939820;28;20062;-75
2022/07/14 11:18:26;;;;;;;0.30;0.30;;;20.80;99.90;;;;;;4957541;28;20074;-78
2022/07/14 11:21:07;;;;;;;0.28;0.28;;;20.80;99.90;;;;;;4953315;28;20468;-75
2022/07/14 11:23:54;;;;;;;0.30;0.30;;;20.80;99.90;;;;;;4948927;28;20051;-73
2022/07/14 11:26:35;;;;;;;0.30;0.30;;;20.80;99.90;;;;;;4952870;28;20051;-75
2022/07/14 11:29:05;;;;;;;0.30;0.30;;;20.90;99.90;;;;;;4955477;28;20167;-78
2022/07/14 11:31:47;;;;;;;0.30;0.30;;;21.10;99.90;;;;;;4961884;28;20126;-74
2022/07/14 11:37:11;;;;;;;0.22;0.22;;;21.50;99.90;;;;;;4959042;28;20543;-74
2022/07/14 11:39:38;;;;;;;1.00;0.77;;;21.70;99.90;;;;;;4955543;28;20043;-75
2022/07/14 11:42:14;;;;;;;0.30;0.30;;;21.90;99.90;;;;;;4964113;28;20055;-75
2022/07/14 11:44:40;;;;;;;1.67;1.58;;;22.00;99.90;;;;;;4963445;28;20043;-77
2022/07/14 11:47:15;;;;;;;0.17;0.17;;;22.00;99.90;;;;;;4964419;28;20137;-76
2022/07/14 11:49:41;;;;;;;0.47;0.40;;;22.00;99.90;;;;;;4957448;28;20378;-77
2022/07/14 11:52:07;;;;;;;0.30;0.30;;;22.00;99.90;;;;;;4961763;28;20324;-79
2022/07/14 11:54:34;;;;;;;0.50;0.50;;;22.10;99.90;;;;;;4941835;28;20113;-78
2022/07/14 11:57:11;;;;;;;5.60;0.98;;;22.10;99.90;;;;;;4960038;28;20446;-82
2022/07/14 11:59:41;;;;;;;0.20;0.20;;;22.00;99.90;;;;;;4966502;28;20043;-78
2022/07/14 12:02:11;;;;;;;0.20;0.20;;;21.70;99.90;;;;;;4957150;28;20058;-78
2022/07/14 12:04:52;;;;;;;0.20;0.20;;;21.50;99.90;;;;;;4963700;28;20055;-77
2022/07/14 12:07:20;;;;;;;0.30;0.30;;;21.10;99.90;;;;;;4952029;28;20050;-79
2022/07/14 12:09:47;;;;;;;0.30;0.30;;;20.80;99.90;;;;;;4955163;28;20504;-77
2022/07/14 12:12:13;;;;;;;0.30;0.30;;;20.60;99.90;;;;;;4962283;28;20051;-77
2022/07/14 12:14:46;;;;;;;0.30;0.30;;;20.40;99.90;;;;;;4937294;28;20043;-77
2022/07/14 12:17:12;;;;;;;0.40;0.40;;;20.20;99.90;;;;;;4954169;28;20045;-78
2022/07/14 12:19:37;;;;;;;0.35;0.35;;;20.10;99.90;;;;;;4954253;28;20057;-81
2022/07/14 12:22:05;;;;;;;0.30;0.30;;;20.10;99.90;;;;;;4936044;28;20043;-77
2022/07/14 12:24:31;;;;;;;0.30;0.30;;;20.10;99.90;;;;;;4955644;28;20473;-78
2022/07/14 12:27:06;;;;;;;0.20;0.20;;;20.50;99.90;;;;;;4953028;28;20104;-81
2022/07/14 12:29:33;;;;;;;0.30;0.30;;;21.00;99.90;;;;;;4953861;28;20051;-78
2022/07/14 12:32:00;;;;;;;0.30;0.30;;;21.30;99.90;;;;;;4951202;28;20369;-78
2022/07/14 12:34:27;;;;;;;0.20;0.20;;;21.70;99.90;;;;;;4958687;28;20043;-77
2022/07/14 12:36:58;;;;;;;0.30;0.30;;;21.70;99.90;;;;;;4955972;28;20070;-77
2022/07/14 12:39:24;;;;;;;0.20;0.20;;;21.60;99.90;;;;;;4932253;29;20055;-77
2022/07/14 12:41:51;;;;;;;0.30;0.30;;;21.50;99.90;;;;;;4951807;28;20058;-81
2022/07/14 12:44:17;;;;;;;0.68;0.50;;;21.40;99.90;;;;;;4945440;28;20050;-78
2022/07/14 12:46:43;;;;;;;0.22;0.20;;;21.20;99.90;;;;;;4961897;28;20404;-81
2022/07/14 12:49:10;;;;;;;0.40;0.40;;;21.20;99.90;;;;;;4959889;28;20048;-79
2022/07/14 12:51:42;;;;;;;0.40;0.40;;;21.20;99.90;;;;;;4949725;28;20039;-80
2022/07/14 12:54:12;;;;;;;0.22;0.22;;;21.20;99.90;;;;;;4954082;28;20439;-78
2022/07/14 12:56:44;;;;;;;0.20;0.20;;;21.50;99.90;;;;;;4959079;28;20055;-80
2022/07/14 12:59:16;;;;;;;0.30;0.30;;;21.70;99.90;;;;;;4952814;28;20082;-79
2022/07/14 13:01:52;;;;;;;0.30;0.30;;;21.70;99.90;;;;;;4960042;28;20043;-77
2022/07/14 13:04:38;;;;;;;0.43;0.43;;;21.30;99.90;;;;;;4949542;28;20067;-79
2022/07/14 13:07:10;;;;;;;0.30;0.30;;;21.10;99.90;;;;;;4959419;28;20120;-81
2022/07/14 13:09:36;;;;;;;0.30;0.30;;;20.90;99.90;;;;;;4950296;28;20055;-79
2022/07/14 13:12:27;;;;;;;0.45;0.45;;;20.70;99.90;;;;;;4951051;28;20482;-78